createdAt,value
2018-03-08T00:01:44.321Z,20.55
2018-03-08T00:04:10.537Z,22.45
2018-03-08T00:06:36.782Z,22.52
2018-03-08T00:09:03.793Z,23.35
2018-03-08T00:11:30.026Z,23.05
2018-03-08T00:13:56.266Z,19.35
2018-03-08T00:16:27.334Z,21.58
2018-03-08T00:18:53.558Z,23.35
2018-03-08T00:21:20.522Z,23.38
2018-03-08T00:23:47.481Z,22.77
2018-03-08T00:26:13.761Z,23.48
2018-03-08T00:28:39.964Z,22.15
2018-03-08T00:31:06.188Z,24.45
2018-03-08T00:33:33.273Z,22.80
2018-03-08T00:35:59.532Z,23.50
2018-03-08T00:38:25.749Z,23.27
2018-03-08T00:40:51.999Z,22.37
2018-03-08T00:43:18.252Z,22.75
2018-03-08T00:45:44.479Z,21.83
2018-03-08T00:48:10.706Z,22.50
2018-03-08T00:50:37.945Z,24.10
2018-03-08T00:53:05.016Z,23.25
2018-03-08T00:55:31.237Z,22.37
2018-03-08T00:57:57.468Z,24.83
2018-03-08T01:00:23.702Z,26.00
2018-03-08T01:02:49.982Z,27.20
2018-03-08T01:05:16.950Z,26.83
2018-03-08T01:07:43.920Z,25.73
2018-03-08T01:10:11.170Z,26.83
2018-03-08T01:12:37.388Z,30.85
2018-03-08T01:15:03.630Z,31.85
2018-03-08T01:17:29.854Z,34.20
2018-03-08T01:19:56.074Z,36.33
2018-03-08T01:22:22.294Z,34.33
2018-03-08T01:24:48.895Z,37.45
2018-03-08T01:27:15.114Z,36.95
2018-03-08T01:29:41.341Z,39.10
2018-03-08T01:32:08.641Z,45.22
2018-03-08T01:34:34.943Z,45.20
2018-03-08T01:37:01.163Z,44.35
2018-03-08T01:39:27.449Z,47.75
2018-03-08T01:41:53.706Z,45.80
2018-03-08T01:44:19.913Z,47.08
2018-03-08T01:46:46.123Z,42.35
2018-03-08T01:49:13.082Z,41.70
2018-03-08T01:51:51.699Z,44.92
2018-03-08T01:54:17.901Z,43.67
2018-03-08T01:56:44.105Z,39.95
2018-03-08T01:59:10.362Z,42.03
2018-03-08T02:01:36.586Z,40.83
2018-03-08T02:04:03.541Z,41.35
2018-03-08T02:06:29.792Z,39.63
2018-03-08T02:08:56.017Z,39.63
2018-03-08T02:11:22.977Z,43.53
2018-03-08T02:13:49.222Z,40.30
2018-03-08T02:16:15.461Z,38.22
2018-03-08T02:18:41.717Z,37.55
2018-03-08T02:21:08.261Z,39.53
2018-03-08T02:23:34.658Z,37.40
2018-03-08T02:26:00.903Z,36.20
2018-03-08T02:28:27.136Z,34.05
2018-03-08T02:30:54.169Z,36.65
2018-03-08T02:33:21.294Z,35.42
2018-03-08T02:35:47.567Z,35.55
2018-03-08T02:38:13.829Z,33.10
2018-03-08T02:40:40.043Z,34.90
2018-03-08T02:43:06.287Z,28.98
2018-03-08T02:45:32.529Z,30.62
2018-03-08T02:47:58.786Z,28.42
2018-03-08T02:50:25.038Z,29.90
2018-03-08T02:52:51.358Z,27.02
2018-03-08T02:55:17.699Z,27.80
2018-03-08T02:57:43.939Z,25.90
2018-03-08T03:00:10.174Z,24.10
2018-03-08T03:02:36.387Z,24.20
2018-03-08T03:05:02.745Z,23.80
2018-03-08T03:07:29.003Z,21.27
2018-03-08T03:09:55.226Z,21.17
2018-03-08T03:12:21.454Z,21.42
2018-03-08T03:14:48.413Z,19.35
2018-03-08T03:17:14.641Z,21.33
2018-03-08T03:19:41.599Z,20.08
2018-03-08T03:22:07.796Z,20.05
2018-03-08T03:24:34.090Z,18.90
2018-03-08T03:27:00.330Z,18.37
2018-03-08T03:29:26.696Z,18.15
2018-03-08T03:31:52.893Z,19.02
2018-03-08T03:34:19.127Z,18.45
2018-03-08T03:36:45.354Z,16.98
2018-03-08T03:39:12.346Z,17.77
2018-03-08T03:41:38.585Z,15.00
2018-03-08T03:44:04.899Z,15.10
2018-03-08T03:46:31.138Z,15.73
2018-03-08T03:48:58.134Z,16.40
2018-03-08T03:51:25.217Z,14.23
2018-03-08T03:53:51.469Z,13.90
2018-03-08T03:56:17.714Z,14.80
2018-03-08T03:58:43.950Z,13.55
2018-03-08T04:01:10.181Z,13.35
2018-03-08T04:03:36.925Z,14.43
2018-03-08T04:06:03.192Z,12.00
2018-03-08T04:08:29.413Z,11.75
2018-03-08T04:10:55.696Z,11.15
2018-03-08T04:13:21.933Z,12.13
2018-03-08T04:15:48.173Z,11.23
2018-03-08T04:18:14.388Z,10.25
2018-03-08T04:20:40.613Z,10.60
2018-03-08T04:23:06.832Z,9.38
2018-03-08T04:25:33.089Z,8.77
2018-03-08T04:27:59.330Z,7.50
2018-03-08T04:30:25.569Z,8.25
2018-03-08T04:32:51.861Z,7.65
2018-03-08T04:35:18.069Z,8.20
2018-03-08T04:37:44.295Z,8.85
2018-03-08T04:40:10.557Z,8.18
2018-03-08T04:42:36.769Z,7.03
2018-03-08T04:45:03.017Z,7.10
2018-03-08T04:47:29.268Z,7.32
2018-03-08T04:49:55.791Z,6.80
2018-03-08T04:52:22.851Z,7.40
2018-03-08T04:54:49.805Z,6.47
2018-03-08T04:57:16.780Z,5.70
2018-03-08T04:59:43.021Z,7.03
2018-03-08T05:02:24.984Z,5.07
2018-03-08T05:04:51.216Z,5.57
2018-03-08T05:07:17.446Z,5.00
2018-03-08T05:09:43.654Z,3.75
2018-03-08T05:12:09.897Z,4.80
2018-03-08T05:14:36.126Z,5.70
2018-03-08T05:17:03.085Z,5.43
2018-03-08T05:19:29.378Z,4.85
2018-03-08T05:21:55.616Z,3.92
2018-03-08T05:24:21.863Z,4.90
2018-03-08T05:26:48.075Z,5.53
2018-03-08T05:29:14.370Z,4.80
2018-03-08T05:31:40.674Z,5.03
2018-03-08T05:34:06.985Z,4.90
2018-03-08T05:36:33.205Z,5.55
2018-03-08T05:38:59.448Z,5.93
2018-03-08T05:41:26.390Z,6.28
2018-03-08T05:43:52.599Z,5.37
2018-03-08T05:46:18.806Z,5.87
2018-03-08T05:48:45.060Z,5.40
2018-03-08T05:51:11.272Z,7.07
2018-03-08T05:53:37.522Z,7.40
2018-03-08T05:56:03.749Z,6.40
2018-03-08T05:58:29.986Z,6.50
2018-03-08T06:00:56.209Z,7.05
2018-03-08T06:03:23.177Z,6.75
2018-03-08T06:05:50.153Z,6.47
2018-03-08T06:08:16.424Z,6.45
2018-03-08T06:10:42.641Z,5.97
2018-03-08T06:13:08.897Z,6.65
2018-03-08T06:15:35.170Z,6.32
2018-03-08T06:18:01.405Z,7.03
2018-03-08T06:20:27.650Z,7.43
2018-03-08T06:22:54.660Z,7.37
2018-03-08T06:25:20.951Z,6.95
2018-03-08T06:27:47.186Z,7.07
2018-03-08T06:30:13.429Z,8.15
2018-03-08T06:32:39.678Z,8.50
2018-03-08T06:35:05.946Z,7.40
2018-03-08T06:37:34.325Z,7.65
2018-03-08T06:40:00.749Z,7.85
2018-03-08T06:42:26.986Z,7.53
2018-03-08T06:44:53.205Z,7.50
2018-03-08T06:47:19.519Z,7.10
2018-03-08T06:49:45.757Z,7.95
2018-03-08T06:52:12.722Z,8.65
2018-03-08T06:54:41.159Z,7.78
2018-03-08T06:57:07.415Z,8.13
2018-03-08T06:59:33.698Z,6.80
2018-03-08T07:01:59.919Z,8.07
2018-03-08T07:04:26.175Z,6.15
2018-03-08T07:06:52.422Z,6.75
2018-03-08T07:09:19.401Z,6.62
2018-03-08T07:11:51.663Z,7.12
2018-03-08T07:14:18.620Z,5.95
2018-03-08T07:16:44.863Z,6.53
2018-03-08T07:19:11.091Z,7.62
2018-03-08T07:21:38.079Z,6.43
2018-03-08T07:24:04.342Z,6.47
2018-03-08T07:26:33.753Z,6.20
2018-03-08T07:28:59.957Z,7.22
2018-03-08T07:31:26.209Z,7.00
2018-03-08T07:33:52.473Z,8.20
2018-03-08T07:36:18.730Z,7.28
2018-03-08T07:38:44.958Z,7.60
2018-03-08T07:41:11.211Z,7.22
2018-03-08T07:43:39.614Z,7.55
2018-03-08T07:46:05.823Z,7.30
2018-03-08T07:48:32.063Z,8.10
2018-03-08T07:50:58.338Z,8.27
2018-03-08T07:53:24.566Z,7.65
2018-03-08T07:55:50.779Z,8.35
2018-03-08T07:58:17.046Z,7.20
2018-03-08T08:00:43.288Z,6.72
2018-03-08T08:03:12.795Z,7.20
2018-03-08T08:05:52.232Z,7.90
2018-03-08T08:08:26.622Z,8.80
2018-03-08T08:10:52.853Z,7.30
2018-03-08T08:13:20.698Z,7.20
2018-03-08T08:15:47.310Z,7.72
2018-03-08T08:18:14.318Z,6.90
2018-03-08T08:20:40.566Z,6.97
2018-03-08T08:23:06.822Z,8.40
2018-03-08T08:25:33.042Z,7.57
2018-03-08T08:27:59.286Z,6.15
2018-03-08T08:30:29.421Z,6.70
2018-03-08T08:32:56.453Z,6.22
2018-03-08T08:35:23.311Z,6.05
2018-03-08T08:37:49.575Z,7.15
2018-03-08T08:40:15.827Z,6.70
2018-03-08T08:42:42.078Z,6.68
2018-03-08T08:45:08.323Z,7.05
2018-03-08T08:47:37.004Z,7.10
2018-03-08T08:50:04.678Z,5.90
2018-03-08T08:52:31.917Z,6.78
2018-03-08T08:54:58.158Z,6.35
2018-03-08T08:57:24.411Z,7.13
2018-03-08T08:59:51.349Z,6.57
2018-03-08T09:02:17.598Z,6.70
2018-03-08T09:04:48.013Z,6.30
2018-03-08T09:07:14.245Z,6.23
2018-03-08T09:09:40.971Z,6.43
2018-03-08T09:12:07.134Z,6.03
2018-03-08T09:14:33.394Z,6.77
2018-03-08T09:17:00.471Z,6.60
2018-03-08T09:19:26.666Z,6.50
2018-03-08T09:21:57.295Z,6.93
2018-03-08T09:24:23.554Z,6.90
2018-03-08T09:26:49.790Z,5.90
2018-03-08T09:29:16.053Z,6.20
2018-03-08T09:31:42.310Z,6.47
2018-03-08T09:34:08.549Z,6.67
2018-03-08T09:36:34.803Z,6.23
2018-03-08T09:39:01.089Z,6.80
2018-03-08T09:41:32.092Z,6.10
2018-03-08T09:43:58.395Z,6.30
2018-03-08T09:46:24.681Z,7.00
2018-03-08T09:48:51.757Z,6.43
2018-03-08T09:51:17.967Z,6.63
2018-03-08T09:53:44.250Z,6.77
2018-03-08T09:56:10.513Z,6.47
2018-03-08T09:58:38.758Z,6.57
2018-03-08T10:01:09.157Z,7.37
2018-03-08T10:03:35.389Z,6.37
2018-03-08T10:06:01.633Z,6.10
2018-03-08T10:08:27.888Z,4.70
2018-03-08T10:10:54.971Z,5.90
2018-03-08T10:13:21.309Z,6.57
2018-03-08T10:15:48.965Z,5.97
2018-03-08T10:18:15.272Z,6.20
2018-03-08T10:20:42.255Z,5.93
2018-03-08T10:23:08.480Z,6.40
2018-03-08T10:25:34.769Z,5.60
2018-03-08T10:28:01.033Z,5.50
2018-03-08T10:30:27.267Z,5.27
2018-03-08T10:32:53.506Z,5.90
2018-03-08T10:37:55.979Z,5.90
2018-03-08T10:42:48.528Z,5.50
2018-03-08T10:45:14.776Z,5.20
2018-03-08T10:47:41.009Z,5.30
2018-03-08T10:50:09.061Z,5.60
2018-03-08T10:52:35.345Z,5.80
2018-03-08T10:55:01.569Z,5.43
2018-03-08T10:57:27.797Z,5.17
2018-03-08T10:59:54.029Z,5.47
2018-03-08T11:02:26.348Z,5.53
2018-03-08T11:04:58.959Z,5.20
2018-03-08T11:07:25.193Z,5.57
2018-03-08T11:09:52.225Z,4.97
2018-03-08T11:12:18.494Z,5.20
2018-03-08T11:14:45.498Z,4.77
2018-03-08T11:17:11.865Z,4.80
2018-03-08T11:19:39.411Z,4.17
2018-03-08T11:22:05.658Z,4.07
2018-03-08T11:24:31.918Z,5.33
2018-03-08T11:26:58.134Z,4.50
2018-03-08T11:29:24.384Z,4.30
2018-03-08T11:31:50.683Z,4.23
2018-03-08T11:34:16.937Z,3.50
2018-03-08T11:36:43.914Z,3.67
2018-03-08T11:39:10.869Z,4.13
2018-03-08T11:41:37.113Z,3.83
2018-03-08T11:44:03.389Z,3.93
2018-03-08T11:46:29.667Z,4.70
2018-03-08T11:48:56.640Z,4.20
2018-03-08T11:51:23.589Z,3.53
2018-03-08T11:53:50.549Z,3.77
2018-03-08T11:56:16.757Z,3.20
2018-03-08T11:58:43.757Z,3.47
2018-03-08T12:01:10.733Z,2.67
2018-03-08T12:03:36.995Z,2.40
2018-03-08T12:06:03.237Z,2.67
2018-03-08T12:08:29.437Z,2.80
2018-03-08T12:10:56.389Z,2.70
2018-03-08T12:13:23.365Z,2.50
2018-03-08T12:15:50.314Z,2.43
2018-03-08T12:18:17.289Z,2.47
2018-03-08T12:20:43.554Z,2.47
2018-03-08T12:23:11.485Z,2.10
2018-03-08T12:25:38.513Z,2.00
2018-03-08T12:28:04.782Z,1.73
2018-03-08T12:30:30.941Z,2.40
2018-03-08T12:32:57.235Z,2.00
2018-03-08T12:35:23.582Z,1.90
2018-03-08T12:37:49.826Z,1.77
2018-03-08T12:40:16.078Z,1.90
2018-03-08T12:42:46.241Z,1.90
2018-03-08T12:45:13.221Z,1.77
2018-03-08T12:47:40.170Z,1.63
2018-03-08T12:50:06.410Z,1.63
2018-03-08T12:52:32.653Z,1.60
2018-03-08T12:54:59.642Z,1.63
2018-03-08T12:57:25.690Z,2.30
2018-03-08T12:59:56.792Z,2.33
2018-03-08T13:02:23.587Z,2.00
2018-03-08T13:04:49.614Z,2.20
2018-03-08T13:07:15.654Z,2.10
2018-03-08T13:09:41.693Z,2.77
2018-03-08T13:12:07.729Z,2.78
2018-03-08T13:14:33.777Z,2.70
2018-03-08T13:16:59.817Z,2.50
2018-03-08T13:19:28.674Z,2.70
2018-03-08T13:21:54.925Z,3.22
2018-03-08T13:24:21.182Z,3.10
2018-03-08T13:26:47.434Z,2.80
2018-03-08T13:29:13.678Z,2.90
2018-03-08T13:31:39.969Z,2.60
2018-03-08T13:34:06.301Z,2.80
2018-03-08T13:39:04.624Z,3.33
2018-03-08T13:41:30.862Z,3.17
2018-03-08T13:43:57.215Z,3.30
2018-03-08T13:46:23.466Z,3.50
2018-03-08T13:48:49.705Z,3.35
2018-03-08T13:51:15.973Z,3.70
2018-03-08T13:53:42.217Z,3.65
2018-03-08T13:56:09.187Z,3.47
2018-03-08T13:58:35.465Z,3.10
2018-03-08T14:01:01.722Z,3.20
2018-03-08T14:03:28.701Z,3.95
2018-03-08T14:05:55.690Z,3.70
2018-03-08T14:08:21.990Z,3.62
2018-03-08T14:10:48.305Z,3.60
2018-03-08T14:13:14.538Z,3.87
2018-03-08T14:15:40.814Z,4.18
2018-03-08T14:18:07.796Z,2.83
2018-03-08T14:20:34.042Z,3.42
2018-03-08T14:23:00.282Z,3.85
2018-03-08T14:25:26.514Z,3.83
2018-03-08T14:27:52.777Z,3.40
2018-03-08T14:30:18.998Z,3.15
2018-03-08T14:32:45.256Z,3.62
2018-03-08T14:35:11.500Z,3.62
2018-03-08T14:37:40.450Z,4.12
2018-03-08T14:40:06.732Z,3.90
2018-03-08T14:42:32.976Z,3.55
2018-03-08T14:44:59.232Z,3.75
2018-03-08T14:47:25.469Z,5.35
2018-03-08T14:49:51.707Z,3.83
2018-03-08T14:52:17.985Z,4.62
2018-03-08T14:54:44.229Z,4.37
2018-03-08T14:57:10.886Z,7.18
2018-03-08T14:59:37.110Z,3.90
2018-03-08T15:02:03.377Z,3.35
2018-03-08T15:04:29.582Z,3.90
2018-03-08T15:06:55.834Z,3.70
2018-03-08T15:09:22.096Z,4.10
2018-03-08T15:11:48.433Z,4.30
2018-03-08T15:14:14.875Z,4.50
2018-03-08T15:16:41.904Z,4.30
2018-03-08T15:19:08.133Z,4.30
2018-03-08T15:21:34.380Z,3.50
2018-03-08T15:24:00.616Z,3.30
2018-03-08T15:26:26.833Z,4.12
2018-03-08T15:28:53.819Z,2.58
2018-03-08T15:31:20.166Z,3.80
2018-03-08T15:33:46.449Z,2.62
2018-03-08T15:36:12.670Z,2.80
2018-03-08T15:38:38.914Z,2.47
2018-03-08T15:41:05.155Z,2.60
2018-03-08T15:43:31.464Z,3.20
2018-03-08T15:45:57.713Z,3.00
2018-03-08T15:48:24.099Z,3.40
2018-03-08T15:50:50.430Z,4.00
2018-03-08T15:53:16.671Z,4.37
2018-03-08T15:55:43.682Z,4.12
2018-03-08T15:58:10.081Z,5.60
2018-03-08T16:00:37.095Z,4.57
2018-03-08T16:03:03.375Z,5.12
2018-03-08T16:05:29.769Z,5.00
2018-03-08T16:10:58.497Z,6.25
2018-03-08T16:13:28.112Z,5.72
2018-03-08T16:15:54.586Z,4.55
2018-03-08T16:18:21.014Z,4.40
2018-03-08T16:20:48.142Z,4.12
2018-03-08T16:23:27.646Z,3.87
2018-03-08T16:25:55.854Z,3.53
2018-03-08T16:28:23.030Z,3.37
2018-03-08T16:30:49.177Z,3.10
2018-03-08T16:33:16.012Z,2.87
2018-03-08T16:35:42.811Z,3.80
2018-03-08T16:38:08.853Z,4.20
2018-03-08T16:40:35.128Z,4.00
2018-03-08T16:43:01.413Z,4.57
2018-03-08T16:45:27.676Z,4.03
2018-03-08T16:47:53.745Z,4.25
2018-03-08T16:50:19.801Z,4.05
2018-03-08T16:52:46.006Z,3.20
2018-03-08T16:55:12.106Z,3.60
2018-03-08T16:57:38.906Z,2.30
2018-03-08T17:00:04.995Z,2.85
2018-03-08T17:02:34.114Z,2.70
2018-03-08T17:05:00.192Z,3.30
2018-03-08T17:07:26.248Z,3.20
2018-03-08T17:09:52.563Z,4.12
2018-03-08T17:12:18.705Z,3.10
2018-03-08T17:14:44.848Z,3.05
2018-03-08T17:17:11.027Z,3.50
2018-03-08T17:19:37.129Z,2.70
2018-03-08T17:22:03.315Z,2.70
2018-03-08T17:24:30.454Z,2.45
2018-03-08T17:26:56.867Z,2.40
2018-03-08T17:29:23.118Z,2.30
2018-03-08T17:31:49.505Z,2.97
2018-03-08T17:34:16.497Z,2.75
2018-03-08T17:36:42.582Z,3.05
2018-03-08T17:39:08.838Z,3.35
2018-03-08T17:41:35.260Z,2.00
2018-03-08T17:44:01.763Z,2.25
2018-03-08T17:46:28.024Z,2.70
2018-03-08T17:48:54.273Z,3.08
2018-03-08T17:51:20.634Z,2.55
2018-03-08T17:53:46.889Z,3.95
2018-03-08T17:56:13.865Z,2.80
2018-03-08T17:58:40.130Z,2.30
2018-03-08T18:01:06.402Z,2.58
2018-03-08T18:03:32.817Z,2.87
2018-03-08T18:05:59.791Z,2.45
2018-03-08T18:08:26.065Z,2.95
2018-03-08T18:10:52.346Z,2.20
2018-03-08T18:13:18.581Z,2.17
2018-03-08T18:15:45.557Z,3.00
2018-03-08T18:18:11.937Z,2.30
2018-03-08T18:20:38.165Z,5.15
2018-03-08T18:23:04.994Z,2.35
2018-03-08T18:25:33.030Z,2.08
2018-03-08T18:28:00.032Z,2.67
2018-03-08T18:30:26.322Z,3.05
2018-03-08T18:32:52.595Z,2.92
2018-03-08T18:35:19.281Z,3.22
2018-03-08T18:37:45.552Z,2.47
2018-03-08T18:40:11.990Z,3.20
2018-03-08T18:42:38.485Z,2.70
2018-03-08T18:45:04.812Z,4.82
2018-03-08T18:47:31.057Z,3.87
2018-03-08T18:49:58.104Z,3.40
2018-03-08T18:52:24.529Z,4.93
2018-03-08T18:54:50.769Z,4.80
2018-03-08T18:57:17.058Z,5.47
2018-03-08T18:59:43.294Z,4.60
2018-03-08T19:02:11.435Z,7.57
2018-03-08T19:04:37.829Z,5.40
2018-03-08T19:07:04.924Z,5.25
2018-03-08T19:09:32.016Z,4.80
2018-03-08T19:11:59.025Z,5.18
2018-03-08T19:14:25.277Z,5.12
2018-03-08T19:16:51.552Z,4.75
2018-03-08T19:19:17.999Z,4.50
2018-03-08T19:21:44.258Z,3.65
2018-03-08T19:24:10.523Z,4.30
2018-03-08T19:26:36.820Z,3.87
2018-03-08T19:29:03.118Z,3.95
2018-03-08T19:31:29.460Z,2.30
2018-03-08T19:33:55.705Z,2.17
2018-03-08T19:36:22.095Z,2.37
2018-03-08T19:38:49.139Z,2.05
2018-03-08T19:41:15.396Z,2.65
2018-03-08T19:43:41.670Z,2.50
2018-03-08T19:46:08.661Z,2.50
2018-03-08T19:48:35.034Z,2.83
2018-03-08T19:51:01.594Z,3.40
2018-03-08T19:53:28.059Z,4.15
2018-03-08T19:55:54.325Z,4.35
2018-03-08T19:58:20.679Z,4.55
2018-03-08T20:00:46.953Z,4.50
2018-03-08T20:03:13.218Z,4.22
2018-03-08T20:05:39.437Z,4.53
2018-03-08T20:08:06.618Z,4.22
2018-03-08T20:10:32.934Z,4.60
2018-03-08T20:12:59.179Z,4.30
2018-03-08T20:15:25.519Z,4.60
2018-03-08T20:17:51.873Z,5.75
2018-03-08T20:20:18.109Z,4.75
2018-03-08T20:22:44.499Z,4.80
2018-03-08T20:25:11.508Z,5.07
2018-03-08T20:27:38.509Z,4.53
2018-03-08T20:30:04.562Z,5.55
2018-03-08T20:32:31.598Z,6.55
2018-03-08T20:34:57.675Z,7.22
2018-03-08T20:37:24.118Z,7.97
2018-03-08T20:39:52.005Z,7.20
2018-03-08T20:42:18.070Z,7.10
2018-03-08T20:44:44.221Z,7.95
2018-03-08T20:47:10.553Z,7.90
2018-03-08T20:49:37.612Z,7.75
2018-03-08T20:52:03.881Z,7.25
2018-03-08T20:54:30.179Z,7.05
2018-03-08T20:56:56.511Z,7.55
2018-03-08T20:59:22.814Z,7.28
2018-03-08T21:01:49.813Z,7.05
2018-03-08T21:04:16.044Z,7.37
2018-03-08T21:06:42.554Z,7.30
2018-03-08T21:09:08.845Z,7.70
2018-03-08T21:14:31.622Z,6.12
2018-03-08T21:16:57.658Z,6.30
2018-03-08T21:19:23.749Z,6.50
2018-03-08T21:21:50.529Z,6.35
2018-03-08T21:24:16.593Z,5.70
2018-03-08T21:26:42.650Z,6.10
2018-03-08T21:29:09.666Z,5.20
2018-03-08T21:31:35.837Z,6.12
2018-03-08T21:34:02.937Z,5.05
2018-03-08T21:36:28.966Z,5.50
2018-03-08T21:38:55.321Z,5.75
2018-03-08T21:41:22.161Z,4.95
2018-03-08T21:43:48.237Z,4.72
2018-03-08T21:46:14.345Z,5.45
2018-03-08T21:48:42.119Z,5.80
2018-03-08T21:51:08.313Z,5.03
2018-03-08T21:53:34.438Z,5.20
2018-03-08T21:56:00.492Z,5.03
2018-03-08T21:58:26.536Z,4.70
2018-03-08T22:00:52.636Z,3.78
2018-03-08T22:03:18.692Z,3.92
2018-03-08T22:05:44.734Z,4.18
2018-03-08T22:08:10.945Z,4.30
2018-03-08T22:10:38.006Z,4.43
2018-03-08T22:13:05.029Z,4.40
2018-03-08T22:15:31.558Z,4.50
2018-03-08T22:17:57.641Z,3.87
2018-03-08T22:20:24.635Z,3.60
2018-03-08T22:22:51.000Z,3.87
2018-03-08T22:25:17.253Z,3.50
2018-03-08T22:27:43.491Z,3.10
2018-03-08T22:30:09.749Z,3.65
2018-03-08T22:32:36.061Z,4.80
2018-03-08T22:35:02.333Z,3.33
2018-03-08T22:37:28.601Z,2.85
2018-03-08T22:39:55.581Z,3.45
2018-03-08T22:42:21.825Z,3.20
2018-03-08T22:44:48.850Z,2.95
2018-03-08T22:47:15.078Z,3.20
2018-03-08T22:49:42.125Z,3.45
2018-03-08T22:52:08.352Z,3.17
2018-03-08T22:54:35.811Z,2.92
2018-03-08T22:57:02.091Z,2.95
2018-03-08T22:59:29.069Z,3.00
2018-03-08T23:02:11.011Z,3.15
2018-03-08T23:04:37.265Z,2.35
2018-03-08T23:07:03.491Z,2.75
2018-03-08T23:09:29.774Z,3.35
2018-03-08T23:11:56.794Z,3.37
2018-03-08T23:14:23.021Z,2.80
2018-03-08T23:16:49.295Z,3.20
2018-03-08T23:19:15.574Z,3.58
2018-03-08T23:21:41.893Z,3.17
2018-03-08T23:24:08.138Z,3.00
2018-03-08T23:26:34.366Z,3.30
2018-03-08T23:29:00.694Z,2.87
2018-03-08T23:31:27.798Z,3.70
2018-03-08T23:33:54.026Z,4.37
2018-03-08T23:36:20.332Z,2.60
2018-03-08T23:38:47.329Z,3.33
2018-03-08T23:41:13.562Z,2.80
2018-03-08T23:43:39.846Z,2.90
2018-03-08T23:46:06.084Z,2.87
2018-03-08T23:48:33.070Z,3.42
2018-03-08T23:50:59.337Z,3.40
2018-03-08T23:53:25.609Z,3.00
2018-03-08T23:55:51.815Z,3.20
2018-03-08T23:58:18.030Z,3.83
